This is the latest recevied weather packets stored in our database for station/object N0MR. If no packets are shown the sender has not sent any weather packets the latest 10 day(s).
| Time | Temp. | Humidity | Pressure | Rain* | Wind** | Luminosity | Snow |
|---|---|---|---|---|---|---|---|
| 1777856517 | 15° C | 33% | 1000.8 hPa | 0 mm | - | - | - |
| 1777855917 | 15° C | 33% | 1000.8 hPa | 0 mm | - | - | - |
| 1777855317 | 15° C | 33% | 1001 hPa | 0 mm | - | - | - |
| 1777846919 | 17.22° C | 28% | 1001.7 hPa | 0 mm | - | - | - |
| 1777845119 | 17.22° C | 28% | 1001.8 hPa | 0 mm | - | - | - |
| 1777844521 | 17.22° C | 28% | 1001.8 hPa | 0 mm | - | - | - |
| 1777841519 | 17.22° C | 27% | 1002.3 hPa | 0 mm | - | - | - |
| 1777840919 | 17.22° C | 27% | 1002.3 hPa | 0 mm | - | - | - |
| 1777840319 | 17.22° C | 25% | 1002.4 hPa | 0 mm | - | - | - |
| 1777839719 | 17.22° C | 25% | 1002.4 hPa | 0 mm | - | - | - |
| 1777839119 | 16.67° C | 24% | 1002.7 hPa | 0 mm | - | - | - |
| 1777838520 | 16.67° C | 24% | 1002.7 hPa | 0 mm | - | - | - |
| 1777831320 | 16.11° C | 27% | 1003.6 hPa | 0 mm | - | - | - |
| 1777830718 | 16.11° C | 27% | 1003.6 hPa | 0 mm | - | - | - |
| 1777830119 | 15.56° C | 26% | 1003.8 hPa | 0 mm | - | - | - |
| 1777829519 | 15.56° C | 26% | 1003.8 hPa | 0 mm | - | - | - |
| 1777828919 | 15° C | 25% | 1003.8 hPa | 0 mm | - | - | - |
| 1777828320 | 15° C | 25% | 1003.8 hPa | 0 mm | - | - | - |
| 1777827719 | 16.11° C | 24% | 1003.8 hPa | 0 mm | - | - | - |
| 1777827120 | 16.11° C | 24% | 1003.8 hPa | 0 mm | - | - | - |
| 1777826520 | 15.56° C | 34% | 1003.8 hPa | 0 mm | - | - | - |
| 1777825920 | 15.56° C | 34% | 1003.8 hPa | 0 mm | - | - | - |
| 1777825320 | 15.56° C | 42% | 1003.8 hPa | 0 mm | - | - | - |
| 1777824719 | 15.56° C | 42% | 1003.8 hPa | 0 mm | - | - | - |
| 1777823521 | 13.89° C | 51% | 1003.8 hPa | 0 mm | - | - | - |
* Rain latest hour (hover to see other rain measurements)
** Current wind speed in m/s (hover to see current wind gust speed)